Yahata Maru — JL6477 — position and weather

sailwx.info

Track history (hours):
 
Tides and Currents Weather Stations Pressure Air Temp Water Temp Dewpoint Dewpoint Depression Visibility Wind Speed Wind Dir Waves Ship Positions

Yahata Maru

Last reported at 2014-Oct-22 01:32 UTC. Time now 2014-Oct-22 01:41 UTC.
Position N 35°28' E 139°43'.

Length 149 m; draft 4.7 m.

Type: Other ship. MMSI: 431400594.

Date/timePositionNaut miles runAvg speedWind from/ knotsBaromVisibWave heightAir tempDewpointWater temp
2014-Oct-22 01:32N 35°28' E 139°43'0 0.0
2014-Oct-22 00:32N 35°28' E 139°43'0 0.0
2014-Oct-21 23:34N 35°28' E 139°43'4 4.5
2014-Oct-21 22:33N 35°28' E 139°48'10 9.4
2014-Oct-21 21:32N 35°33' E 139°58'1 0.1
2014-Oct-21 08:06N 35°34' E 139°59'1 0.1
2014-Oct-20 20:27N 35°33' E 139°58'8 8.9
2014-Oct-20 19:34N 35°28' E 139°51'9 9.0
2014-Oct-20 18:34N 35°21' E 139°45'9 8.5
2014-Oct-20 17:33N 35°12' E 139°47'  
2014-Oct-17 12:33N 34°35' E 134°52'8 7.9
2014-Oct-17 11:33N 34°37' E 135°02'9 9.2
2014-Oct-17 10:33N 34°36' E 135°13'10 9.9
2014-Oct-17 09:33N 34°36' E 135°25'1 0.8
2014-Oct-17 08:31N 34°35' E 135°26'0 0.0
2014-Oct-17 07:23N 34°35' E 135°26'3 3.1
2014-Oct-17 06:33N 34°36' E 135°23'3 2.7
2014-Oct-17 05:31N 34°39' E 135°21'0 0.1
2014-Oct-17 03:31N 34°39' E 135°21'4 4.5
2014-Oct-17 02:32N 34°43' E 135°21'0 0.1
2014-Oct-17 01:23N 34°43' E 135°21'0 0.0
2014-Oct-17 00:23N 34°43' E 135°21'0 0.0
2014-Oct-16 23:23N 34°43' E 135°21'0 0.0
2014-Oct-16 22:23N 34°43' E 135°21'0 0.0
2014-Oct-16 21:29N 34°43' E 135°21'0 0.0
2014-Oct-16 20:23N 34°43' E 135°21'1 1.1
2014-Oct-16 19:34N 34°42' E 135°21'9 8.7
2014-Oct-16 18:33N 34°34' E 135°16'9 9.3
2014-Oct-16 17:34N 34°27' E 135°09'9 9.3
2014-Oct-16 16:33N 34°20' E 135°02'9 8.7
2014-Oct-16 15:33N 34°11' E 134°60'10 9.5
2014-Oct-16 14:33N 34°02' E 135°01'238 6.3
2014-Oct-15 00:28N 35°06' E 139°40'9 9.6
2014-Oct-14 23:33N 35°13' E 139°46'10 9.7
2014-Oct-14 22:33N 35°22' E 139°42'1010.0
2014-Oct-14 21:33N 35°29' E 139°51'7 0.2
2014-Oct-13 13:25N 35°35' E 139°56'0 0.0
2014-Oct-12 19:13N 35°35' E 139°56'0 0.0
2014-Oct-12 18:31N 35°35' E 139°56'0 0.0
2014-Oct-12 17:31N 35°35' E 139°56'0 0.0
2014-Oct-12 02:28N 35°35' E 139°56'  
Track history (hours):
 
Tides and Currents Weather Stations Pressure Air Temp Water Temp Dewpoint Dewpoint Depression Visibility Wind Speed Wind Dir Waves Ship Positions

Yahata Maru

Last reported at 2014-Oct-22 01:32 UTC. Time now 2014-Oct-22 01:41 UTC.
Position N 35°28' E 139°43'.

Length 149 m; draft 4.7 m.

Type: Other ship. MMSI: 431400594.

Date/timePositionNaut miles runAvg speedWind from/ knotsBaromVisibWave heightAir tempDewpointWater temp
2014-Oct-22 01:32N 35°28' E 139°43'0 0.0
2014-Oct-22 00:32N 35°28' E 139°43'0 0.0
2014-Oct-21 23:34N 35°28' E 139°43'4 4.5
2014-Oct-21 22:33N 35°28' E 139°48'10 9.4
2014-Oct-21 21:32N 35°33' E 139°58'1 0.1
2014-Oct-21 08:06N 35°34' E 139°59'1 0.1
2014-Oct-20 20:27N 35°33' E 139°58'8 8.9
2014-Oct-20 19:34N 35°28' E 139°51'9 9.0
2014-Oct-20 18:34N 35°21' E 139°45'9 8.5
2014-Oct-20 17:33N 35°12' E 139°47'  
2014-Oct-17 12:33N 34°35' E 134°52'8 7.9
2014-Oct-17 11:33N 34°37' E 135°02'9 9.2
2014-Oct-17 10:33N 34°36' E 135°13'10 9.9
2014-Oct-17 09:33N 34°36' E 135°25'1 0.8
2014-Oct-17 08:31N 34°35' E 135°26'0 0.0
2014-Oct-17 07:23N 34°35' E 135°26'3 3.1
2014-Oct-17 06:33N 34°36' E 135°23'3 2.7
2014-Oct-17 05:31N 34°39' E 135°21'0 0.1
2014-Oct-17 03:31N 34°39' E 135°21'4 4.5
2014-Oct-17 02:32N 34°43' E 135°21'0 0.1
2014-Oct-17 01:23N 34°43' E 135°21'0 0.0
2014-Oct-17 00:23N 34°43' E 135°21'0 0.0
2014-Oct-16 23:23N 34°43' E 135°21'0 0.0
2014-Oct-16 22:23N 34°43' E 135°21'0 0.0
2014-Oct-16 21:29N 34°43' E 135°21'0 0.0
2014-Oct-16 20:23N 34°43' E 135°21'1 1.1
2014-Oct-16 19:34N 34°42' E 135°21'9 8.7
2014-Oct-16 18:33N 34°34' E 135°16'9 9.3
2014-Oct-16 17:34N 34°27' E 135°09'9 9.3
2014-Oct-16 16:33N 34°20' E 135°02'9 8.7
2014-Oct-16 15:33N 34°11' E 134°60'10 9.5
2014-Oct-16 14:33N 34°02' E 135°01'238 6.3
2014-Oct-15 00:28N 35°06' E 139°40'9 9.6
2014-Oct-14 23:33N 35°13' E 139°46'10 9.7
2014-Oct-14 22:33N 35°22' E 139°42'1010.0
2014-Oct-14 21:33N 35°29' E 139°51'7 0.2
2014-Oct-13 13:25N 35°35' E 139°56'0 0.0
2014-Oct-12 19:13N 35°35' E 139°56'0 0.0
2014-Oct-12 18:31N 35°35' E 139°56'0 0.0
2014-Oct-12 17:31N 35°35' E 139°56'0 0.0
2014-Oct-12 02:28N 35°35' E 139°56'  

Dump ship's entire track history